Time;durP1;ratioP1;P1;durP2;ratioP2;P2;SDS_P1;SDS_P2;PMS_P1;PMS_P2;Temp;Humidity;BMP_temperature;BMP_pressure;BME280_temperature;BME280_humidity;BME280_pressure;Samples;Min_cycle;Max_cycle;Signal;HPM_P1;HPM_P2
2023/01/21 00:00:40;;;;;;;29.57;13.67;;;0.80;99.90;;;;;;5046956;28;20315;-63
2023/01/21 00:03:07;;;;;;;22.70;12.77;;;0.80;99.90;;;;;;5049958;28;20631;-63
2023/01/21 00:05:35;;;;;;;25.93;13.23;;;0.80;99.90;;;;;;5050840;28;20346;-63
2023/01/21 00:08:02;;;;;;;25.03;14.00;;;0.80;99.90;;;;;;5045771;28;20396;-63
2023/01/21 00:10:29;;;;;;;30.90;14.13;;;0.80;99.90;;;;;;5043006;28;20819;-63
2023/01/21 00:12:56;;;;;;;25.93;14.47;;;0.70;99.90;;;;;;5056686;28;20224;-63
2023/01/21 00:15:23;;;;;;;26.73;13.83;;;0.60;99.90;;;;;;5013983;28;20308;-63
2023/01/21 00:17:52;;;;;;;29.03;14.07;;;0.70;99.90;;;;;;5055113;28;20237;-63
2023/01/21 00:20:19;;;;;;;23.73;13.20;;;0.70;99.90;;;;;;5059163;28;20660;-63
2023/01/21 00:22:48;;;;;;;24.83;13.43;;;0.70;99.90;;;;;;5045109;28;20255;-63
2023/01/21 00:25:15;;;;;;;25.93;14.30;;;0.80;99.90;;;;;;5039895;28;20371;-63
2023/01/21 00:27:41;;;;;;;26.03;13.83;;;0.80;99.90;;;;;;5050481;28;21368;-63
2023/01/21 00:30:10;;;;;;;26.57;14.23;;;0.90;99.90;;;;;;5020133;28;21057;-63
2023/01/21 00:32:37;;;;;;;25.90;13.63;;;0.90;99.90;;;;;;5050247;28;20229;-63
2023/01/21 00:35:05;;;;;;;29.67;13.53;;;0.90;99.90;;;;;;5048057;28;20232;-63
2023/01/21 00:37:32;;;;;;;30.30;14.30;;;0.90;99.90;;;;;;5049019;28;20333;-63
2023/01/21 00:40:00;;;;;;;29.17;13.97;;;0.90;99.90;;;;;;5037548;28;20766;-63
2023/01/21 00:42:27;;;;;;;28.27;13.33;;;1.00;99.90;;;;;;5048404;28;21002;-63
2023/01/21 00:44:56;;;;;;;31.07;13.67;;;1.00;99.90;;;;;;5029323;28;20224;-63
2023/01/21 00:47:23;;;;;;;28.80;14.17;;;1.00;99.90;;;;;;5054986;28;20226;-63
2023/01/21 00:49:50;;;;;;;26.17;14.30;;;1.00;99.90;;;;;;5060079;28;20336;-63
2023/01/21 00:52:17;;;;;;;24.87;13.20;;;1.00;99.90;;;;;;5065308;28;20220;-63
2023/01/21 00:54:43;;;;;;;24.63;13.17;;;1.00;99.90;;;;;;5041364;28;20320;-63
2023/01/21 00:57:12;;;;;;;26.33;13.87;;;1.00;99.90;;;;;;5051458;28;20695;-63
2023/01/21 00:59:39;;;;;;;22.77;12.70;;;1.00;99.90;;;;;;5037972;28;20216;-64
2023/01/21 01:02:06;;;;;;;26.23;12.17;;;1.10;99.90;;;;;;5032664;28;20709;-63
2023/01/21 01:04:33;;;;;;;25.67;12.50;;;1.10;99.90;;;;;;5063297;28;20226;-63
2023/01/21 01:07:00;;;;;;;24.77;13.27;;;1.10;99.90;;;;;;5063697;28;20341;-63
2023/01/21 01:09:27;;;;;;;24.90;12.03;;;1.10;99.90;;;;;;5042104;28;20221;-64
2023/01/21 01:11:54;;;;;;;27.47;12.97;;;1.10;99.90;;;;;;5048234;28;20226;-63
2023/01/21 01:14:22;;;;;;;23.33;12.10;;;1.20;99.90;;;;;;5044854;28;20222;-63
2023/01/21 01:16:49;;;;;;;21.83;11.67;;;1.20;99.90;;;;;;5007601;28;20563;-63
2023/01/21 01:19:17;;;;;;;23.63;12.57;;;1.20;99.90;;;;;;5054572;28;20641;-63
2023/01/21 01:21:44;;;;;;;21.83;13.20;;;1.20;99.90;;;;;;5049220;28;20647;-64
2023/01/21 01:24:11;;;;;;;22.03;12.83;;;1.20;99.90;;;;;;5048129;28;20349;-63
2023/01/21 01:26:39;;;;;;;21.90;11.90;;;1.20;99.90;;;;;;5040115;28;20363;-63
2023/01/21 01:29:07;;;;;;;20.60;12.60;;;1.20;99.90;;;;;;5050871;28;21197;-63
2023/01/21 01:31:35;;;;;;;20.07;11.50;;;1.20;99.90;;;;;;5020831;28;20900;-63
2023/01/21 01:34:02;;;;;;;28.33;13.70;;;1.20;99.90;;;;;;5049972;28;20773;-64
2023/01/21 01:36:28;;;;;;;31.03;16.23;;;1.20;99.90;;;;;;5060447;28;20231;-63
2023/01/21 01:38:58;;;;;;;29.40;14.87;;;1.20;99.90;;;;;;5035735;28;20704;-64
2023/01/21 01:41:28;;;;;;;25.83;12.87;;;1.20;99.90;;;;;;5049103;28;20221;-63
2023/01/21 01:43:58;;;;;;;25.67;13.73;;;1.20;99.90;;;;;;5046861;28;20837;-63
2023/01/21 01:46:27;;;;;;;25.63;13.73;;;1.10;99.90;;;;;;5021492;28;20528;-63
2023/01/21 01:49:03;;;;;;;27.10;14.17;;;1.20;99.90;;;;;;5048423;28;21076;-65
2023/01/21 01:51:40;;;;;;;26.93;14.23;;;1.20;99.90;;;;;;5053006;28;20343;-64
2023/01/21 01:54:07;;;;;;;23.60;12.50;;;1.10;99.90;;;;;;5057737;28;20307;-63
2023/01/21 01:56:38;;;;;;;23.87;12.83;;;1.10;99.90;;;;;;5039724;28;20392;-64
2023/01/21 01:59:05;;;;;;;22.40;11.87;;;1.10;99.90;;;;;;5036786;28;20292;-63
2023/01/21 02:01:32;;;;;;;25.23;11.77;;;1.00;99.90;;;;;;5020472;28;20296;-64
2023/01/21 02:04:04;;;;;;;21.03;11.90;;;1.00;99.90;;;;;;5053714;28;20310;-63
2023/01/21 02:06:31;;;;;;;19.80;11.40;;;1.00;99.90;;;;;;5038411;28;20352;-63
2023/01/21 02:08:57;;;;;;;22.40;12.60;;;1.00;99.90;;;;;;5058355;28;20266;-63
2023/01/21 02:11:24;;;;;;;22.97;11.37;;;1.00;99.90;;;;;;5042897;28;20268;-63
2023/01/21 02:13:54;;;;;;;20.90;11.73;;;0.90;99.90;;;;;;5060357;28;21238;-63
2023/01/21 02:16:52;;;;;;;22.17;12.27;;;0.90;99.90;;;;;;5042100;28;20224;-63
2023/01/21 02:19:43;;;;;;;25.30;12.70;;;0.90;99.90;;;;;;5001858;28;20296;-66
2023/01/21 02:22:18;;;;;;;21.87;11.87;;;0.70;99.90;;;;;;5031064;28;20320;-63
2023/01/21 02:25:26;;;;;;;22.43;12.07;;;0.80;99.90;;;;;;5022834;28;20441;-64
2023/01/21 02:28:06;;;;;;;23.67;12.63;;;0.70;99.90;;;;;;5005795;28;20345;-63
2023/01/21 02:31:09;;;;;;;26.83;12.40;;;0.60;99.90;;;;;;5003835;28;20355;-63
2023/01/21 02:33:56;;;;;;;19.10;11.63;;;0.50;99.90;;;;;;4994282;28;20231;-63
2023/01/21 02:36:43;;;;;;;27.40;12.67;;;0.50;99.90;;;;;;5029615;28;20231;-63
2023/01/21 02:39:18;;;;;;;24.20;12.70;;;0.50;99.90;;;;;;5023380;28;20381;-63
2023/01/21 02:42:00;;;;;;;22.00;11.50;;;0.50;99.90;;;;;;5021197;28;20251;-63
2023/01/21 02:44:33;;;;;;;22.50;12.10;;;0.50;99.90;;;;;;5028205;28;20690;-63
2023/01/21 02:47:07;;;;;;;23.73;12.03;;;0.30;99.90;;;;;;5018290;28;20297;-63
2023/01/21 02:49:38;;;;;;;23.50;11.90;;;0.40;99.90;;;;;;5002135;28;20715;-63
2023/01/21 02:52:05;;;;;;;26.57;12.77;;;0.40;99.90;;;;;;5024003;28;21575;-62
2023/01/21 02:54:53;;;;;;;25.97;10.97;;;0.40;99.90;;;;;;5034914;28;20659;-63
2023/01/21 02:57:35;;;;;;;25.90;11.83;;;0.50;99.90;;;;;;5018844;28;20678;-63
2023/01/21 03:00:06;;;;;;;21.30;11.27;;;0.50;99.90;;;;;;5012400;28;20823;-63
2023/01/21 03:02:49;;;;;;;23.23;12.17;;;0.60;99.90;;;;;;5030766;28;20311;-63
2023/01/21 03:05:24;;;;;;;21.03;11.33;;;0.60;99.90;;;;;;4999964;28;21187;-63
2023/01/21 03:08:01;;;;;;;23.10;12.33;;;0.60;99.90;;;;;;5027310;28;20314;-63
2023/01/21 03:10:33;;;;;;;20.93;11.07;;;0.50;99.90;;;;;;5026888;28;20342;-64
2023/01/21 03:13:04;;;;;;;26.23;11.83;;;0.50;99.90;;;;;;5021896;28;20323;-63
2023/01/21 03:18:27;;;;;;;21.37;10.93;;;0.60;99.90;;;;;;5044542;28;20497;-62
2023/01/21 03:20:58;;;;;;;22.20;11.93;;;0.70;99.90;;;;;;5021985;28;20332;-63
2023/01/21 03:23:30;;;;;;;25.30;11.97;;;0.80;99.90;;;;;;5053613;28;20421;-63
2023/01/21 03:25:58;;;;;;;25.20;12.23;;;0.90;99.90;;;;;;5054216;28;20216;-62
2023/01/21 03:28:29;;;;;;;22.63;11.10;;;0.90;99.90;;;;;;5045560;28;20331;-63
2023/01/21 03:31:02;;;;;;;21.77;10.60;;;0.90;99.90;;;;;;5060253;28;20247;-63
2023/01/21 03:33:32;;;;;;;25.33;11.97;;;0.90;99.90;;;;;;5052828;28;20571;-63
2023/01/21 03:36:04;;;;;;;26.87;12.27;;;0.80;99.90;;;;;;5020644;28;20272;-63
2023/01/21 03:38:36;;;;;;;24.13;12.40;;;0.90;99.90;;;;;;5057270;28;20943;-63
2023/01/21 03:41:10;;;;;;;21.50;11.83;;;0.90;99.90;;;;;;5064239;28;21125;-63
2023/01/21 03:43:37;;;;;;;24.97;11.63;;;0.90;99.90;;;;;;5043573;28;20284;-63
2023/01/21 03:46:09;;;;;;;23.73;12.53;;;0.70;99.90;;;;;;5037391;28;21028;-63
2023/01/21 03:48:43;;;;;;;26.73;12.33;;;0.80;99.90;;;;;;5058612;28;20274;-63
2023/01/21 03:51:16;;;;;;;20.37;11.77;;;0.90;99.90;;;;;;5028959;28;20691;-63
2023/01/21 03:53:44;;;;;;;23.23;11.87;;;0.90;99.90;;;;;;5062735;28;20315;-63
2023/01/21 03:56:11;;;;;;;20.83;11.87;;;0.90;99.90;;;;;;5053533;28;20232;-62
2023/01/21 03:58:38;;;;;;;24.60;12.10;;;0.90;99.90;;;;;;5044907;28;20224;-63
2023/01/21 04:01:05;;;;;;;25.60;11.80;;;1.00;99.90;;;;;;5063554;28;20374;-63
2023/01/21 04:03:31;;;;;;;24.40;12.17;;;0.90;99.90;;;;;;5040185;28;20221;-63
2023/01/21 04:05:58;;;;;;;24.63;12.83;;;0.90;99.90;;;;;;5028923;28;20288;-63
2023/01/21 04:08:26;;;;;;;21.67;11.03;;;0.80;99.90;;;;;;5065542;28;21042;-63
2023/01/21 04:10:53;;;;;;;20.80;10.73;;;0.90;99.90;;;;;;5058689;28;20330;-63
2023/01/21 04:13:20;;;;;;;17.13;10.53;;;1.00;99.90;;;;;;5049593;28;20340;-63
2023/01/21 04:15:47;;;;;;;22.57;10.67;;;1.10;99.90;;;;;;5052752;28;20332;-63
2023/01/21 04:18:14;;;;;;;23.50;11.73;;;1.10;99.90;;;;;;5049574;28;20242;-63
2023/01/21 04:20:40;;;;;;;18.77;10.53;;;1.10;99.90;;;;;;5022961;28;20699;-63
2023/01/21 04:23:07;;;;;;;19.20;10.10;;;1.00;99.90;;;;;;5054476;28;20687;-63
2023/01/21 04:25:35;;;;;;;20.47;10.33;;;1.00;99.90;;;;;;5053412;28;20310;-63
2023/01/21 04:28:02;;;;;;;15.57;9.10;;;1.00;99.90;;;;;;5045664;28;20692;-63
2023/01/21 04:30:29;;;;;;;17.20;9.07;;;1.00;99.90;;;;;;5045636;28;20357;-63
2023/01/21 04:32:56;;;;;;;21.13;9.43;;;1.00;99.90;;;;;;5042651;28;20661;-63
2023/01/21 04:35:23;;;;;;;18.60;10.17;;;1.00;99.90;;;;;;5025833;28;20255;-64
2023/01/21 04:37:50;;;;;;;21.17;10.23;;;1.10;99.90;;;;;;5054119;28;20498;-63
2023/01/21 04:40:17;;;;;;;21.30;10.83;;;1.70;99.90;;;;;;5055469;28;20634;-63
2023/01/21 04:42:45;;;;;;;21.37;10.93;;;0.90;99.90;;;;;;5053994;28;20895;-63
2023/01/21 04:45:12;;;;;;;25.83;12.17;;;1.00;99.90;;;;;;5037171;28;21127;-63
2023/01/21 04:47:41;;;;;;;24.77;11.97;;;0.90;99.90;;;;;;5039621;28;20420;-63
2023/01/21 04:50:09;;;;;;;23.73;12.00;;;0.80;99.90;;;;;;5023323;28;20223;-63
2023/01/21 04:52:36;;;;;;;20.53;11.53;;;0.80;99.90;;;;;;5056176;28;20785;-64
2023/01/21 04:55:04;;;;;;;20.17;10.17;;;0.80;99.90;;;;;;5054949;28;20221;-63
2023/01/21 04:57:31;;;;;;;21.60;11.13;;;0.90;99.90;;;;;;5054131;28;20715;-63
2023/01/21 04:59:59;;;;;;;21.03;11.57;;;1.00;99.90;;;;;;5040901;28;20225;-63
2023/01/21 05:02:26;;;;;;;24.47;11.07;;;1.00;99.90;;;;;;5038014;28;20407;-63
2023/01/21 05:04:53;;;;;;;19.60;11.27;;;1.00;99.90;;;;;;5034011;28;20768;-63
2023/01/21 05:07:19;;;;;;;22.33;11.07;;;1.00;99.90;;;;;;5047618;28;20331;-63
2023/01/21 05:09:46;;;;;;;21.73;11.33;;;1.10;99.90;;;;;;5054747;28;20355;-63
2023/01/21 05:12:13;;;;;;;27.03;11.97;;;1.00;99.90;;;;;;5053479;28;20228;-63
2023/01/21 05:14:40;;;;;;;23.30;10.47;;;1.00;99.90;;;;;;5054983;28;20310;-63
2023/01/21 05:17:09;;;;;;;21.40;11.43;;;1.00;99.90;;;;;;5030317;28;20662;-63
2023/01/21 05:19:36;;;;;;;26.53;12.00;;;1.10;99.90;;;;;;5056206;28;20668;-63
2023/01/21 05:22:02;;;;;;;22.83;12.07;;;1.10;99.90;;;;;;5018769;28;20584;-63
2023/01/21 05:24:29;;;;;;;20.97;11.10;;;1.00;99.90;;;;;;5038403;28;20226;-63
2023/01/21 05:26:56;;;;;;;23.07;12.00;;;1.10;99.90;;;;;;5050701;28;20672;-63
2023/01/21 05:29:23;;;;;;;22.87;10.97;;;1.10;99.90;;;;;;5038679;28;20337;-63
2023/01/21 05:31:50;;;;;;;25.43;11.67;;;1.10;99.90;;;;;;5039966;28;20386;-63
2023/01/21 05:34:18;;;;;;;22.10;12.27;;;1.00;99.90;;;;;;5043836;28;20307;-63
2023/01/21 05:36:45;;;;;;;24.93;11.10;;;1.10;99.90;;;;;;5021273;28;20340;-63
2023/01/21 05:39:12;;;;;;;22.50;11.57;;;1.10;99.90;;;;;;5054127;28;20270;-63
2023/01/21 05:41:39;;;;;;;22.23;11.70;;;1.20;99.90;;;;;;5052198;28;20228;-63
2023/01/21 05:44:06;;;;;;;21.00;10.43;;;1.20;99.90;;;;;;5052737;28;20270;-63
2023/01/21 05:46:33;;;;;;;22.47;11.47;;;1.20;99.90;;;;;;5040301;28;20229;-63
2023/01/21 05:48:59;;;;;;;20.90;10.50;;;1.10;99.90;;;;;;5039750;28;20307;-63
2023/01/21 05:51:28;;;;;;;20.23;10.50;;;1.10;99.90;;;;;;5027647;28;20277;-63
2023/01/21 05:53:54;;;;;;;23.33;10.80;;;1.10;99.90;;;;;;5055088;28;20223;-63
2023/01/21 05:56:21;;;;;;;20.30;11.27;;;1.00;99.90;;;;;;5025709;28;20998;-63
2023/01/21 05:58:48;;;;;;;24.30;10.33;;;1.10;99.90;;;;;;5046276;28;22136;-63
2023/01/21 06:01:15;;;;;;;20.53;9.97;;;1.00;99.90;;;;;;4994912;28;21290;-64
2023/01/21 06:03:42;;;;;;;19.60;10.73;;;0.90;99.90;;;;;;5043701;28;20350;-63
2023/01/21 06:06:09;;;;;;;18.87;9.80;;;0.90;99.90;;;;;;5016471;28;20381;-64
2023/01/21 06:08:37;;;;;;;16.50;9.53;;;0.90;99.90;;;;;;5045378;28;20283;-63
2023/01/21 06:11:04;;;;;;;18.53;10.27;;;0.80;99.90;;;;;;5049416;28;20309;-63
2023/01/21 06:13:31;;;;;;;16.87;10.07;;;0.90;99.90;;;;;;5055591;28;20310;-64
2023/01/21 06:15:57;;;;;;;18.37;9.17;;;0.80;99.90;;;;;;5054418;28;20244;-63
2023/01/21 06:18:24;;;;;;;17.03;9.70;;;0.90;99.90;;;;;;5015381;28;20569;-63
2023/01/21 06:20:51;;;;;;;17.00;10.03;;;0.90;99.90;;;;;;5045820;28;21358;-63
2023/01/21 06:23:18;;;;;;;19.83;9.93;;;0.90;99.90;;;;;;5025263;28;20844;-63
2023/01/21 06:25:50;;;;;;;20.90;10.37;;;0.90;99.90;;;;;;5051565;28;20663;-64
2023/01/21 06:28:17;;;;;;;18.07;9.60;;;0.40;99.90;;;;;;5056531;28;20216;-64
2023/01/21 06:30:43;;;;;;;17.67;10.43;;;1.00;99.90;;;;;;5054899;28;20245;-65
2023/01/21 06:33:10;;;;;;;21.40;9.47;;;0.90;99.90;;;;;;5038289;28;20228;-64
2023/01/21 06:35:37;;;;;;;20.27;10.50;;;1.00;99.90;;;;;;5036630;28;20362;-64
2023/01/21 06:38:04;;;;;;;17.10;9.73;;;1.00;99.90;;;;;;5020878;28;20816;-63
2023/01/21 06:40:31;;;;;;;18.50;9.53;;;1.00;99.90;;;;;;5054846;28;20308;-64
2023/01/21 06:42:59;;;;;;;17.33;9.90;;;1.00;99.90;;;;;;5045382;28;20303;-63
2023/01/21 06:45:26;;;;;;;19.87;9.87;;;0.90;99.90;;;;;;5042306;28;20308;-63
2023/01/21 06:47:53;;;;;;;19.40;10.00;;;0.90;99.90;;;;;;5042706;28;20614;-63
2023/01/21 06:50:20;;;;;;;16.33;9.03;;;1.00;99.90;;;;;;5040935;28;20446;-63
2023/01/21 06:52:47;;;;;;;26.23;11.10;;;0.90;99.90;;;;;;5057046;28;20753;-63
2023/01/21 06:55:15;;;;;;;18.53;9.60;;;0.90;99.90;;;;;;5019302;28;20225;-64
2023/01/21 06:57:43;;;;;;;19.33;9.37;;;1.10;99.90;;;;;;5044428;28;20298;-63
2023/01/21 07:00:13;;;;;;;18.23;9.97;;;1.00;99.90;;;;;;5053738;28;20291;-63
2023/01/21 07:02:40;;;;;;;17.43;10.17;;;1.00;99.90;;;;;;5046809;28;20229;-63
2023/01/21 07:05:07;;;;;;;17.93;9.83;;;1.00;99.90;;;;;;5051657;28;20292;-63
2023/01/21 07:07:34;;;;;;;17.37;9.80;;;0.90;99.90;;;;;;5040035;28;20242;-63
2023/01/21 07:10:01;;;;;;;18.10;10.10;;;1.00;99.90;;;;;;5035844;28;20474;-66
2023/01/21 07:12:28;;;;;;;17.63;10.50;;;1.00;99.90;;;;;;5061701;28;20330;-63
2023/01/21 07:14:55;;;;;;;21.57;11.23;;;1.00;99.90;;;;;;5046795;28;20321;-63
2023/01/21 07:17:23;;;;;;;18.87;10.63;;;1.10;99.90;;;;;;5064420;28;20333;-63
2023/01/21 07:19:50;;;;;;;19.13;10.87;;;1.10;99.90;;;;;;5048163;28;20805;-63
2023/01/21 07:22:17;;;;;;;20.30;11.53;;;1.10;99.90;;;;;;5033552;28;20291;-63
2023/01/21 07:24:43;;;;;;;21.70;11.60;;;1.00;99.90;;;;;;5035340;28;20231;-63
2023/01/21 07:27:10;;;;;;;26.27;13.00;;;1.10;99.90;;;;;;5064436;28;20309;-63
2023/01/21 07:29:37;;;;;;;25.00;12.53;;;1.10;99.90;;;;;;5051244;28;20325;-64
2023/01/21 07:32:05;;;;;;;22.67;12.77;;;1.10;99.90;;;;;;5053770;28;20518;-64
2023/01/21 07:34:33;;;;;;;19.10;11.93;;;1.10;99.90;;;;;;5051332;28;20240;-64
2023/01/21 07:37:00;;;;;;;22.67;11.87;;;1.20;99.90;;;;;;5036885;28;20820;-63
2023/01/21 07:39:27;;;;;;;18.77;10.13;;;0.90;99.90;;;;;;5026674;28;20552;-64
2023/01/21 07:41:54;;;;;;;18.97;9.43;;;1.00;99.90;;;;;;5047002;28;20294;-64
2023/01/21 07:44:20;;;;;;;18.00;9.63;;;1.00;99.90;;;;;;5053668;28;20321;-63
2023/01/21 07:46:47;;;;;;;19.73;11.40;;;1.10;99.90;;;;;;5049664;28;20383;-64
2023/01/21 07:49:16;;;;;;;16.50;9.70;;;1.00;99.90;;;;;;5040604;28;20581;-64
2023/01/21 07:51:44;;;;;;;16.70;9.30;;;0.90;99.90;;;;;;5023688;28;20746;-63
2023/01/21 07:54:12;;;;;;;20.93;10.00;;;0.90;99.90;;;;;;5013988;28;21994;-64
2023/01/21 07:56:39;;;;;;;23.53;10.37;;;0.90;99.90;;;;;;5049450;28;20231;-63
2023/01/21 07:59:06;;;;;;;25.40;12.50;;;0.90;99.90;;;;;;5034203;28;20220;-64
2023/01/21 08:01:33;;;;;;;25.43;12.50;;;0.90;99.90;;;;;;5029253;28;20262;-64
2023/01/21 08:04:00;;;;;;;18.80;9.67;;;0.90;99.90;;;;;;5030561;28;20797;-64
2023/01/21 08:06:27;;;;;;;26.27;12.80;;;0.90;99.90;;;;;;5011633;28;20356;-64
2023/01/21 08:08:56;;;;;;;38.17;17.00;;;0.90;99.90;;;;;;5030663;28;20597;-63
2023/01/21 08:11:23;;;;;;;25.63;11.80;;;;;;;;;;5022622;28;20300;-64
2023/01/21 08:13:50;;;;;;;24.30;12.60;;;0.90;99.90;;;;;;5029163;28;20253;-64
2023/01/21 08:16:17;;;;;;;19.97;11.37;;;0.90;99.90;;;;;;5042008;28;20350;-64
2023/01/21 08:18:43;;;;;;;28.67;13.03;;;0.80;99.90;;;;;;5045973;28;20359;-64
2023/01/21 08:21:10;;;;;;;20.23;12.70;;;0.80;99.90;;;;;;5055447;28;20341;-63
2023/01/21 08:23:37;;;;;;;18.53;10.83;;;0.80;99.90;;;;;;5017004;28;20282;-64
2023/01/21 08:26:07;;;;;;;23.70;11.53;;;0.70;99.90;;;;;;5028774;28;20306;-64
2023/01/21 08:28:34;;;;;;;21.17;12.20;;;0.60;99.90;;;;;;5048957;28;20287;-64
2023/01/21 08:31:06;;;;;;;22.60;12.73;;;0.60;99.90;;;;;;5045248;28;20311;-64
2023/01/21 08:33:33;;;;;;;22.80;10.87;;;0.70;99.90;;;;;;5060005;28;20290;-64
2023/01/21 08:36:00;;;;;;;18.97;10.60;;;0.60;99.90;;;;;;5057513;28;20742;-63
2023/01/21 08:38:27;;;;;;;20.23;10.13;;;0.70;99.90;;;;;;5018435;28;20228;-64
2023/01/21 08:40:56;;;;;;;17.40;9.73;;;0.70;99.90;;;;;;5015454;28;20219;-65
2023/01/21 08:43:25;;;;;;;21.10;10.13;;;0.70;99.90;;;;;;5020549;28;20260;-63
2023/01/21 08:45:51;;;;;;;18.73;9.43;;;0.80;99.90;;;;;;5046656;28;20227;-64
2023/01/21 08:48:18;;;;;;;19.73;10.00;;;0.70;99.90;;;;;;5046772;28;20807;-64
2023/01/21 08:50:45;;;;;;;19.20;10.53;;;0.70;99.90;;;;;;5051481;28;20727;-64
2023/01/21 08:53:12;;;;;;;22.30;10.27;;;0.60;99.90;;;;;;5036053;28;20233;-64
2023/01/21 08:55:39;;;;;;;19.40;10.80;;;0.70;99.90;;;;;;5039219;28;20362;-64
2023/01/21 08:58:06;;;;;;;20.50;11.67;;;0.60;99.90;;;;;;5000715;28;20236;-64
2023/01/21 09:00:34;;;;;;;20.60;10.73;;;0.70;99.90;;;;;;5027327;28;20232;-65
2023/01/21 09:03:01;;;;;;;21.53;10.40;;;0.70;99.90;;;;;;5025938;28;20965;-63
2023/01/21 09:05:28;;;;;;;21.70;11.40;;;0.80;99.90;;;;;;5048203;28;21003;-64
2023/01/21 09:07:56;;;;;;;21.80;11.13;;;0.90;99.90;;;;;;5027512;28;20308;-64
2023/01/21 09:13:09;;;;;;;18.83;10.97;;;1.10;99.90;;;;;;5009249;28;20561;-64
2023/01/21 09:15:39;;;;;;;20.90;10.87;;;1.10;99.90;;;;;;5048315;28;20664;-64
2023/01/21 09:18:06;;;;;;;22.60;10.57;;;1.20;99.90;;;;;;5043283;28;20323;-64
2023/01/21 09:20:33;;;;;;;24.40;11.90;;;1.10;99.90;;;;;;5054859;28;20288;-64
2023/01/21 09:23:00;;;;;;;20.47;10.37;;;1.10;99.90;;;;;;5044222;28;20207;-64
2023/01/21 09:25:27;;;;;;;24.13;12.73;;;1.10;99.90;;;;;;5035612;28;20210;-64
2023/01/21 09:27:54;;;;;;;22.10;10.23;;;1.20;99.90;;;;;;5048123;28;20287;-64
2023/01/21 09:30:21;;;;;;;19.07;10.73;;;1.20;99.90;;;;;;5033773;28;20295;-64
2023/01/21 09:32:49;;;;;;;22.07;11.07;;;1.20;99.90;;;;;;5045698;28;20763;-64
2023/01/21 09:35:16;;;;;;;21.60;10.40;;;1.20;99.90;;;;;;5049354;28;20302;-64
2023/01/21 09:37:43;;;;;;;24.07;10.90;;;1.20;99.90;;;;;;5046151;28;20313;-64
2023/01/21 09:40:16;;;;;;;21.73;11.20;;;1.20;99.90;;;;;;5045620;28;20427;-64
2023/01/21 09:42:45;;;;;;;21.73;11.63;;;1.30;99.90;;;;;;5043577;28;20230;-63
2023/01/21 09:45:15;;;;;;;23.53;11.07;;;1.30;99.90;;;;;;5010138;28;20241;-64
2023/01/21 09:47:44;;;;;;;17.47;9.43;;;1.30;99.90;;;;;;5050265;28;20204;-64
2023/01/21 09:50:16;;;;;;;25.73;11.33;;;1.40;99.90;;;;;;5056427;28;20294;-64
2023/01/21 09:52:45;;;;;;;29.87;11.53;;;1.40;99.90;;;;;;5040330;28;20622;-64
2023/01/21 09:55:17;;;;;;;21.47;10.03;;;1.30;99.90;;;;;;5058395;28;21738;-64
2023/01/21 09:58:12;;;;;;;25.10;10.30;;;1.20;99.90;;;;;;5035919;28;20690;-64
2023/01/21 10:00:45;;;;;;;21.17;9.47;;;1.30;99.90;;;;;;5015370;28;20207;-64
2023/01/21 10:03:23;;;;;;;24.77;10.47;;;1.30;99.90;;;;;;5044962;28;20330;-64
2023/01/21 10:06:23;;;;;;;21.97;9.67;;;1.20;99.90;;;;;;5050857;28;21092;-64
2023/01/21 10:09:04;;;;;;;26.70;9.63;;;1.20;99.90;;;;;;5042031;28;21424;-65
2023/01/21 10:11:42;;;;;;;20.37;9.73;;;1.20;99.90;;;;;;5042672;28;20217;-64
2023/01/21 10:14:31;;;;;;;26.23;10.30;;;1.20;99.90;;;;;;5047119;28;20355;-64
2023/01/21 10:17:05;;;;;;;21.17;9.70;;;1.20;99.90;;;;;;5050717;28;20311;-64
2023/01/21 10:19:41;;;;;;;22.47;10.37;;;1.20;99.90;;;;;;5034366;28;20345;-64
2023/01/21 10:22:15;;;;;;;21.60;9.67;;;1.30;99.90;;;;;;5051485;28;20447;-64
2023/01/21 10:24:46;;;;;;;30.87;11.03;;;1.30;99.90;;;;;;5045609;28;20343;-64
2023/01/21 10:27:16;;;;;;;24.13;10.43;;;1.20;99.90;;;;;;5045950;28;20192;-65
2023/01/21 10:29:44;;;;;;;21.73;10.20;;;1.30;99.90;;;;;;5044901;28;20372;-64
2023/01/21 10:32:16;;;;;;;20.33;9.80;;;1.40;99.90;;;;;;5015233;28;20222;-66
2023/01/21 10:34:50;;;;;;;21.40;9.33;;;1.30;99.90;;;;;;5048259;28;20293;-65
2023/01/21 10:37:29;;;;;;;28.80;9.30;;;1.20;99.90;;;;;;5045278;28;20392;-65
2023/01/21 10:40:08;;;;;;;16.73;9.93;;;1.20;99.90;;;;;;5037747;28;20350;-66
2023/01/21 10:42:49;;;;;;;26.40;10.47;;;1.20;99.90;;;;;;5044117;28;20983;-64
2023/01/21 10:45:27;;;;;;;21.60;9.73;;;1.30;99.90;;;;;;5026957;28;20366;-65
2023/01/21 10:48:01;;;;;;;24.67;10.17;;;1.40;99.90;;;;;;5020554;28;20325;-65
2023/01/21 10:50:40;;;;;;;19.67;9.90;;;1.30;99.90;;;;;;5025677;28;20209;-65
2023/01/21 10:53:18;;;;;;;17.77;9.43;;;1.30;99.90;;;;;;5039953;28;20296;-65
2023/01/21 10:56:05;;;;;;;19.70;9.90;;;1.30;99.90;;;;;;5046870;28;20300;-65
2023/01/21 10:58:36;;;;;;;19.23;10.57;;;1.30;99.90;;;;;;5033808;28;20227;-65
2023/01/21 11:01:08;;;;;;;19.67;9.70;;;1.40;99.90;;;;;;5016729;28;20801;-66
2023/01/21 11:03:40;;;;;;;22.60;10.20;;;1.30;99.90;;;;;;5044662;28;20203;-65
2023/01/21 11:06:09;;;;;;;19.27;9.53;;;1.40;99.90;;;;;;5043792;28;20776;-65
2023/01/21 11:08:38;;;;;;;16.63;8.13;;;1.30;99.90;;;;;;5050641;28;20238;-65
2023/01/21 11:11:07;;;;;;;28.37;11.40;;;1.40;99.90;;;;;;5044599;28;20320;-65
2023/01/21 11:13:34;;;;;;;21.73;9.83;;;1.40;99.90;;;;;;5039184;28;20310;-66
2023/01/21 11:16:03;;;;;;;22.83;10.90;;;1.40;99.90;;;;;;5035537;28;20433;-65
2023/01/21 11:18:34;;;;;;;24.20;10.93;;;1.30;99.90;;;;;;5008906;28;20282;-65
2023/01/21 11:21:12;;;;;;;22.57;11.13;;;1.50;99.90;;;;;;5042136;28;20741;-65
2023/01/21 11:23:40;;;;;;;20.20;10.30;;;1.50;99.90;;;;;;5053853;28;20285;-65
2023/01/21 11:26:16;;;;;;;25.47;10.30;;;1.70;99.90;;;;;;5036540;28;20225;-65
2023/01/21 11:28:44;;;;;;;26.23;9.97;;;1.40;99.90;;;;;;5020458;28;20240;-65
2023/01/21 11:31:14;;;;;;;26.03;10.40;;;1.40;99.90;;;;;;5037330;28;20194;-65
2023/01/21 11:33:42;;;;;;;18.87;9.37;;;1.40;99.90;;;;;;5024463;28;20374;-65
2023/01/21 11:36:12;;;;;;;17.60;10.10;;;1.40;99.90;;;;;;5046157;28;20298;-65
2023/01/21 11:38:41;;;;;;;19.43;9.17;;;1.40;99.90;;;;;;5055774;28;20250;-65
2023/01/21 11:41:17;;;;;;;18.73;10.43;;;1.40;99.90;;;;;;5037167;28;20977;-64
2023/01/21 11:43:45;;;;;;;17.57;9.77;;;1.30;99.90;;;;;;5040236;28;20338;-66
2023/01/21 11:46:35;;;;;;;21.33;10.03;;;1.50;99.90;;;;;;5044494;28;21133;-65
2023/01/21 11:49:29;;;;;;;15.63;8.40;;;1.50;99.90;;;;;;5019987;28;20228;-65
2023/01/21 11:52:20;;;;;;;19.13;9.60;;;1.50;99.90;;;;;;4998886;28;20762;-65
2023/01/21 11:54:49;;;;;;;18.87;8.97;;;1.50;99.90;;;;;;5031654;28;20743;-66
2023/01/21 11:57:28;;;;;;;20.10;9.47;;;1.50;99.90;;;;;;5047894;28;20387;-65
2023/01/21 12:00:04;;;;;;;18.50;9.87;;;1.60;99.90;;;;;;5030765;28;20445;-65
2023/01/21 12:02:34;;;;;;;19.80;9.30;;;1.70;99.90;;;;;;5049025;28;20213;-65
2023/01/21 12:05:04;;;;;;;19.73;9.33;;;1.60;99.90;;;;;;5024814;28;20355;-67
2023/01/21 12:07:35;;;;;;;14.83;9.23;;;1.70;99.90;;;;;;5057170;28;20676;-65
2023/01/21 12:10:16;;;;;;;18.47;9.90;;;1.60;99.90;;;;;;5052418;28;20261;-65
2023/01/21 12:12:57;;;;;;;23.73;10.77;;;1.70;99.90;;;;;;5042653;28;20302;-65
2023/01/21 12:15:42;;;;;;;18.93;10.33;;;1.70;99.90;;;;;;5033488;28;21532;-66
2023/01/21 12:18:25;;;;;;;17.73;10.17;;;1.80;99.90;;;;;;5046794;28;20372;-66
2023/01/21 12:21:01;;;;;;;27.27;11.50;;;1.80;99.90;;;;;;5014754;28;20216;-66
2023/01/21 12:23:53;;;;;;;16.93;9.47;;;1.90;99.90;;;;;;5063014;28;20286;-66
2023/01/21 12:26:36;;;;;;;19.53;10.80;;;1.90;99.90;;;;;;5053687;28;20286;-66
2023/01/21 12:29:23;;;;;;;20.97;10.50;;;1.80;99.90;;;;;;5055016;28;20673;-66
2023/01/21 12:31:56;;;;;;;19.10;10.00;;;1.80;99.90;;;;;;5038122;28;20214;-66
2023/01/21 12:34:31;;;;;;;19.10;10.10;;;1.80;99.90;;;;;;5032802;28;20350;-66
2023/01/21 12:37:02;;;;;;;20.53;10.13;;;1.80;99.90;;;;;;5015623;28;20312;-66
2023/01/21 12:39:33;;;;;;;18.20;10.13;;;1.80;99.90;;;;;;5035303;28;20231;-66
2023/01/21 12:42:10;;;;;;;19.73;10.33;;;1.80;99.90;;;;;;5044894;28;20719;-66
2023/01/21 12:44:42;;;;;;;21.80;10.90;;;1.80;99.90;;;;;;5047005;28;20275;-66
2023/01/21 12:47:19;;;;;;;18.50;10.23;;;2.50;99.90;;;;;;5049396;28;20208;-67
2023/01/21 12:50:02;;;;;;;17.97;10.57;;;1.90;99.90;;;;;;5045400;28;21464;-66
2023/01/21 12:52:37;;;;;;;18.73;10.90;;;2.00;99.90;;;;;;5005951;28;20957;-66
2023/01/21 12:55:13;;;;;;;20.37;10.40;;;2.00;99.90;;;;;;5053760;28;21206;-66
2023/01/21 12:57:49;;;;;;;18.33;10.33;;;1.90;99.90;;;;;;5040025;28;20315;-67
2023/01/21 13:00:22;;;;;;;23.57;11.73;;;2.00;99.90;;;;;;5048670;28;20379;-67